Darstellungsparameter: Aktuell verwendete Einstellungen:
Skalierung der Graphiken ... ?
xyx+y,   Skalierungsfaktor:      Skalierung: Modus: x, Faktor: 1
Darstellungszeitraum ... ?
Vom - - bis: - -   Zeitraum: 12.04.2021 - 12.04.2021
Min/Max/Avg-Anzeige ... ?
Zeige MMA aktuell
Zeige MMA Monat
Zeige MMA alles
Zeige --A aktuell
Zeige --A Monat
Zeige --A alles
Keine MMA-Anzeige
MMA:
Keine MMA-Graphiken
MMA-Basis: 12.04.2021 - 12.04.2021
Quicknavigation für Darstellung... ?
Tage:      1T, 2T, 3T, 5T -1T -2T -3T -5T +1T +2T +3T +5T
Wochen: 1W, 2W, 3W -1W -2W -3W +1W +2W +3W
Monate: 1M, 3M, 6M -1M -3M -6M +1M +3M +6M
Jahre:    1J, 3J, 5J, 10J -1J -3J -5J -10J +1J +3J +5J +10J
Nutze für die Darstellung ... ?
Originaldaten oder Mittelwerte auf ...
Stundenbasis Tagesbasis Wochenbasis
Monatsbasis Jahresbasis      Datenbasis: Original-Daten
Darstellen als:
Statistik (Auto) Statistik J:M      Darstellung:
Zur Graphik,    zurück zur Übersicht aller Sensoren.
 
Tabellarische Datenbersicht: ?
 
Sensor: Nr:Datum:Temp:Feuchte:Taupunkt:
Aussen-T/F 1 12-04-2021 02:00:00 3.7 C 96 % 3.12 C
2 12-04-2021 02:05:00 3.6 C 96 % 3.02 C
3 12-04-2021 02:10:00 3.6 C 96 % 3.02 C
4 12-04-2021 02:15:00 3.5 C 96 % 2.92 C
5 12-04-2021 02:20:00 3.4 C 95 % 2.68 C
6 12-04-2021 02:25:00 3.3 C 95 % 2.58 C
7 12-04-2021 02:30:00 3.2 C 95 % 2.48 C
8 12-04-2021 02:35:00 3.1 C 95 % 2.38 C
9 12-04-2021 02:40:00 3.1 C 95 % 2.38 C
10 12-04-2021 02:45:00 3 C 95 % 2.28 C
11 12-04-2021 02:50:00 2.9 C 95 % 2.18 C
12 12-04-2021 02:55:00 2.9 C 95 % 2.18 C
13 12-04-2021 03:00:00 2.8 C 96 % 2.23 C
14 12-04-2021 03:05:00 2.8 C 96 % 2.23 C
15 12-04-2021 03:10:00 2.8 C 95 % 2.08 C
16 12-04-2021 03:15:00 2.7 C 95 % 1.98 C
17 12-04-2021 03:20:00 2.7 C 96 % 2.13 C
18 12-04-2021 03:25:00 2.7 C 96 % 2.13 C
19 12-04-2021 03:30:00 2.8 C 96 % 2.23 C
20 12-04-2021 03:35:00 2.8 C 96 % 2.23 C
21 12-04-2021 03:40:00 2.8 C 96 % 2.23 C
22 12-04-2021 03:45:00 2.7 C 96 % 2.13 C
23 12-04-2021 03:50:00 2.7 C 96 % 2.13 C
24 12-04-2021 03:55:00 2.6 C 95 % 1.88 C
25 12-04-2021 04:00:00 2.6 C 95 % 1.88 C
Sensor: Nr:Datum:Temp:Feuchte:Taupunkt:
Aussen-T/F 26 12-04-2021 04:05:00 2.6 C 95 % 1.88 C
27 12-04-2021 04:10:00 2.4 C 95 % 1.68 C
28 12-04-2021 04:15:00 2.4 C 95 % 1.68 C
29 12-04-2021 04:20:00 2.4 C 95 % 1.68 C
30 12-04-2021 04:25:00 2.3 C 95 % 1.58 C
31 12-04-2021 04:30:00 2.3 C 95 % 1.58 C
32 12-04-2021 04:35:00 2.3 C 95 % 1.58 C
33 12-04-2021 04:40:00 2.2 C 95 % 1.48 C
34 12-04-2021 04:45:00 2.1 C 95 % 1.38 C
35 12-04-2021 04:50:00 2 C 95 % 1.29 C
36 12-04-2021 04:55:00 2 C 95 % 1.29 C
37 12-04-2021 05:00:00 1.9 C 95 % 1.19 C
38 12-04-2021 05:05:00 1.9 C 95 % 1.19 C
39 12-04-2021 05:10:00 1.9 C 95 % 1.19 C
40 12-04-2021 05:15:00 1.9 C 95 % 1.19 C
41 12-04-2021 05:20:00 1.9 C 95 % 1.19 C
42 12-04-2021 05:25:00 1.9 C 95 % 1.19 C
43 12-04-2021 05:30:00 1.9 C 95 % 1.19 C
44 12-04-2021 05:35:00 1.8 C 95 % 1.09 C
45 12-04-2021 05:40:00 1.8 C 95 % 1.09 C
46 12-04-2021 05:45:00 1.8 C 95 % 1.09 C
47 12-04-2021 05:50:00 1.8 C 95 % 1.09 C
48 12-04-2021 05:55:00 1.8 C 95 % 1.09 C
49 12-04-2021 06:00:00 1.8 C 95 % 1.09 C
50 12-04-2021 06:05:00 1.7 C 95 % 0.99 C
Sensor: Nr:Datum:Temp:Feuchte:Taupunkt:
Aussen-T/F 51 12-04-2021 06:10:00 1.7 C 95 % 0.99 C
52 12-04-2021 06:15:00 1.7 C 95 % 0.99 C
53 12-04-2021 06:20:00 1.7 C 95 % 0.99 C
54 12-04-2021 06:25:00 1.7 C 95 % 0.99 C
55 12-04-2021 06:30:00 1.7 C 95 % 0.99 C
56 12-04-2021 06:35:00 1.7 C 96 % 1.13 C
57 12-04-2021 06:40:00 1.8 C 96 % 1.23 C
58 12-04-2021 06:45:00 1.8 C 96 % 1.23 C
59 12-04-2021 06:50:00 1.8 C 96 % 1.23 C
60 12-04-2021 06:55:00 1.8 C 96 % 1.23 C
61 12-04-2021 07:00:00 1.8 C 96 % 1.23 C
62 12-04-2021 07:05:00 1.8 C 96 % 1.23 C
63 12-04-2021 07:10:00 1.9 C 96 % 1.33 C
64 12-04-2021 07:15:00 1.9 C 96 % 1.33 C
65 12-04-2021 07:20:00 1.9 C 96 % 1.33 C
66 12-04-2021 07:25:00 1.9 C 96 % 1.33 C
67 12-04-2021 07:30:00 2.1 C 96 % 1.53 C
68 12-04-2021 07:35:00 2.1 C 96 % 1.53 C
69 12-04-2021 07:40:00 2.2 C 96 % 1.63 C
70 12-04-2021 07:45:00 2.2 C 96 % 1.63 C
71 12-04-2021 07:50:00 2.3 C 96 % 1.73 C
72 12-04-2021 07:55:00 2.3 C 96 % 1.73 C
73 12-04-2021 08:00:00 2.3 C 96 % 1.73 C
74 12-04-2021 08:05:00 2.3 C 96 % 1.73 C
75 12-04-2021 08:10:00 2.3 C 96 % 1.73 C
Sensor: Nr:Datum:Temp:Feuchte:Taupunkt:
Aussen-T/F 76 12-04-2021 08:15:00 2.3 C 96 % 1.73 C
77 12-04-2021 08:20:00 2.3 C 96 % 1.73 C
78 12-04-2021 08:25:00 2.2 C 96 % 1.63 C
79 12-04-2021 08:30:00 2.2 C 96 % 1.63 C
80 12-04-2021 08:35:00 2.2 C 96 % 1.63 C
81 12-04-2021 08:40:00 2.2 C 96 % 1.63 C
82 12-04-2021 08:45:00 2.3 C 96 % 1.73 C
83 12-04-2021 08:50:00 2.3 C 96 % 1.73 C
84 12-04-2021 08:55:00 2.5 C 96 % 1.93 C
85 12-04-2021 09:00:00 2.7 C 96 % 2.13 C
86 12-04-2021 09:05:00 2.8 C 96 % 2.23 C
87 12-04-2021 09:10:00 2.9 C 96 % 2.33 C
88 12-04-2021 09:15:00 3.1 C 96 % 2.53 C
89 12-04-2021 09:20:00 3.2 C 96 % 2.63 C
90 12-04-2021 09:25:00 3.3 C 96 % 2.72 C
91 12-04-2021 09:30:00 3.4 C 96 % 2.82 C
92 12-04-2021 09:35:00 3.5 C 96 % 2.92 C
93 12-04-2021 09:40:00 3.6 C 95 % 2.88 C
94 12-04-2021 09:45:00 3.7 C 95 % 2.98 C
95 12-04-2021 09:50:00 3.8 C 93 % 2.77 C
96 12-04-2021 09:55:00 3.9 C 92 % 2.72 C
97 12-04-2021 10:00:00 4 C 91 % 2.67 C
98 12-04-2021 10:05:00 4.2 C 90 % 2.71 C
99 12-04-2021 10:10:00 4.2 C 89 % 2.55 C
100 12-04-2021 10:15:00 4.4 C 88 % 2.59 C
Sensor: Nr:Datum:Temp:Feuchte:Taupunkt:
Aussen-T/F 101 12-04-2021 10:20:00 4.5 C 86 % 2.37 C
102 12-04-2021 10:25:00 4.6 C 86 % 2.47 C
103 12-04-2021 10:30:00 4.7 C 83 % 2.07 C
104 12-04-2021 10:35:00 4.8 C 84 % 2.33 C
105 12-04-2021 10:40:00 4.9 C 83 % 2.26 C
106 12-04-2021 10:45:00 5 C 83 % 2.36 C
107 12-04-2021 10:50:00 5.1 C 80 % 1.94 C
108 12-04-2021 10:55:00 5.1 C 81 % 2.12 C
109 12-04-2021 11:00:00 5.2 C 81 % 2.21 C
110 12-04-2021 11:05:00 5.1 C 82 % 2.29 C
111 12-04-2021 11:10:00 5.2 C 81 % 2.21 C
112 12-04-2021 11:15:00 5.2 C 80 % 2.04 C
113 12-04-2021 11:20:00 5.3 C 80 % 2.14 C
114 12-04-2021 11:25:00 5.3 C 80 % 2.14 C
115 12-04-2021 11:30:00 5.4 C 79 % 2.06 C
116 12-04-2021 11:35:00 5.6 C 79 % 2.25 C
117 12-04-2021 11:40:00 5.7 C 80 % 2.53 C
118 12-04-2021 11:45:00 5.7 C 77 % 1.99 C
119 12-04-2021 11:50:00 5.7 C 77 % 1.99 C
120 12-04-2021 11:55:00 5.7 C 77 % 1.99 C
121 12-04-2021 12:00:00 5.9 C 76 % 2 C
122 12-04-2021 12:05:00 6.1 C 74 % 1.82 C
123 12-04-2021 12:10:00 6.2 C 74 % 1.92 C
124 12-04-2021 12:15:00 6.6 C 76 % 2.68 C
125 12-04-2021 12:20:00 6.7 C 70 % 1.63 C
Sensor: Nr:Datum:Temp:Feuchte:Taupunkt:
Aussen-T/F 126 12-04-2021 12:25:00 6.8 C 68 % 1.32 C
127 12-04-2021 12:30:00 7.1 C 71 % 2.21 C
128 12-04-2021 12:35:00 7.5 C 70 % 2.39 C
129 12-04-2021 12:40:00 7.8 C 71 % 2.88 C
130 12-04-2021 12:45:00 7.8 C 70 % 2.68 C
131 12-04-2021 12:50:00 7.5 C 69 % 2.19 C
132 12-04-2021 12:55:00 6.6 C 76 % 2.68 C
133 12-04-2021 13:00:00 5.5 C 80 % 2.33 C
134 12-04-2021 13:05:00 4.9 C 84 % 2.43 C
135 12-04-2021 13:10:00 4.7 C 87 % 2.73 C
136 12-04-2021 13:15:00 4.7 C 88 % 2.89 C
137 12-04-2021 13:20:00 4.8 C 89 % 3.14 C
138 12-04-2021 13:25:00 5.2 C 90 % 3.7 C
139 12-04-2021 13:30:00 5.4 C 90 % 3.89 C
140 12-04-2021 13:35:00 5.5 C 89 % 3.84 C
141 12-04-2021 13:40:00 5.3 C 84 % 2.82 C
142 12-04-2021 13:45:00 5.2 C 84 % 2.72 C
143 12-04-2021 13:50:00 5.1 C 84 % 2.63 C
144 12-04-2021 13:55:00 4.8 C 83 % 2.16 C
145 12-04-2021 14:00:00 4.7 C 85 % 2.4 C
146 12-04-2021 14:05:00 4.9 C 87 % 2.92 C
147 12-04-2021 14:10:00 5.1 C 88 % 3.28 C
148 12-04-2021 14:15:00 5.4 C 88 % 3.58 C
149 12-04-2021 14:20:00 5.7 C 85 % 3.38 C
150 12-04-2021 14:25:00 5.9 C 85 % 3.58 C
Sensor: Nr:Datum:Temp:Feuchte:Taupunkt:
Aussen-T/F 151 12-04-2021 14:30:00 6.2 C 81 % 3.19 C
152 12-04-2021 14:35:00 6.5 C 79 % 3.13 C
153 12-04-2021 14:40:00 7 C 77 % 3.25 C
154 12-04-2021 14:45:00 7.4 C 75 % 3.27 C
155 12-04-2021 14:50:00 7.6 C 73 % 3.08 C
156 12-04-2021 14:55:00 8 C 71 % 3.07 C
157 12-04-2021 15:00:00 8.3 C 71 % 3.36 C
158 12-04-2021 15:05:00 8.4 C 68 % 2.85 C
159 12-04-2021 15:10:00 8.2 C 68 % 2.66 C
160 12-04-2021 15:15:00 7.9 C 69 % 2.57 C
161 12-04-2021 15:20:00 7.6 C 71 % 2.69 C
162 12-04-2021 15:25:00 7.3 C 71 % 2.4 C
163 12-04-2021 15:30:00 7 C 75 % 2.88 C
164 12-04-2021 15:35:00 6.7 C 78 % 3.14 C
165 12-04-2021 15:40:00 6.6 C 81 % 3.58 C
166 12-04-2021 15:45:00 6.6 C 83 % 3.92 C
167 12-04-2021 15:50:00 6.4 C 82 % 3.56 C
168 12-04-2021 15:55:00 5.9 C 78 % 2.37 C
169 12-04-2021 16:00:00 5.3 C 78 % 1.78 C
170 12-04-2021 16:05:00 4.8 C 81 % 1.82 C
171 12-04-2021 16:10:00 4.7 C 84 % 2.23 C
172 12-04-2021 16:15:00 4.7 C 86 % 2.56 C
173 12-04-2021 16:20:00 4.7 C 87 % 2.73 C
174 12-04-2021 16:25:00 4.9 C 88 % 3.08 C
175 12-04-2021 16:30:00 5.6 C 88 % 3.77 C
Sensor: Nr:Datum:Temp:Feuchte:Taupunkt:
Aussen-T/F 176 12-04-2021 16:35:00 6.1 C 83 % 3.44 C
177 12-04-2021 16:40:00 6.3 C 82 % 3.46 C
178 12-04-2021 16:45:00 6.4 C 82 % 3.56 C
179 12-04-2021 16:50:00 6.4 C 80 % 3.21 C
180 12-04-2021 16:55:00 6.3 C 76 % 2.39 C
181 12-04-2021 17:00:00 6.3 C 77 % 2.57 C
182 12-04-2021 17:05:00 6.3 C 77 % 2.57 C
183 12-04-2021 17:10:00 6.2 C 73 % 1.73 C
184 12-04-2021 17:15:00 6.1 C 74 % 1.82 C
185 12-04-2021 17:20:00 5.9 C 74 % 1.63 C
186 12-04-2021 17:25:00 5.8 C 76 % 1.91 C
187 12-04-2021 17:30:00 5.8 C 76 % 1.91 C
188 12-04-2021 17:35:00 5.8 C 78 % 2.27 C
189 12-04-2021 17:40:00 5.9 C 77 % 2.19 C
190 12-04-2021 17:45:00 6 C 77 % 2.28 C
191 12-04-2021 17:50:00 6.1 C 78 % 2.56 C
192 12-04-2021 17:55:00 6.2 C 76 % 2.29 C
193 12-04-2021 18:00:00 6.2 C 77 % 2.48 C
194 12-04-2021 18:05:00 6.3 C 74 % 2.02 C
195 12-04-2021 18:10:00 6.3 C 74 % 2.02 C
196 12-04-2021 18:15:00 6.5 C 71 % 1.63 C
197 12-04-2021 18:20:00 6.8 C 73 % 2.31 C
198 12-04-2021 18:25:00 7.3 C 72 % 2.6 C
199 12-04-2021 18:30:00 7.8 C 69 % 2.48 C
200 12-04-2021 18:35:00 7.9 C 67 % 2.16 C
Sensor: Nr:Datum:Temp:Feuchte:Taupunkt:
Aussen-T/F 201 12-04-2021 18:40:00 7.9 C 67 % 2.16 C
202 12-04-2021 18:45:00 7.8 C 67 % 2.07 C
203 12-04-2021 18:50:00 7.7 C 68 % 2.18 C
204 12-04-2021 18:55:00 7.8 C 67 % 2.07 C
205 12-04-2021 19:00:00 7.8 C 68 % 2.27 C
206 12-04-2021 19:05:00 7.7 C 66 % 1.76 C
207 12-04-2021 19:10:00 7.3 C 67 % 1.59 C
208 12-04-2021 19:15:00 6.9 C 69 % 1.62 C
209 12-04-2021 19:20:00 6.7 C 69 % 1.43 C
210 12-04-2021 19:25:00 6.7 C 70 % 1.63 C
211 12-04-2021 19:30:00 6.6 C 68 % 1.13 C
212 12-04-2021 19:35:00 6.6 C 69 % 1.33 C
213 12-04-2021 19:40:00 6.5 C 69 % 1.23 C
214 12-04-2021 19:45:00 6.4 C 70 % 1.34 C
215 12-04-2021 19:50:00 6.4 C 71 % 1.54 C
216 12-04-2021 19:55:00 6.4 C 71 % 1.54 C
217 12-04-2021 20:00:00 6.3 C 70 % 1.24 C
218 12-04-2021 20:05:00 6.3 C 72 % 1.63 C
219 12-04-2021 20:10:00 6.2 C 74 % 1.92 C
220 12-04-2021 20:15:00 5.9 C 75 % 1.82 C
221 12-04-2021 20:20:00 5.6 C 76 % 1.71 C
222 12-04-2021 20:25:00 5.3 C 78 % 1.78 C
223 12-04-2021 20:30:00 4.9 C 79 % 1.57 C
224 12-04-2021 20:35:00 4.7 C 81 % 1.73 C
225 12-04-2021 20:40:00 4.4 C 82 % 1.6 C
Sensor: Nr:Datum:Temp:Feuchte:Taupunkt:
Aussen-T/F 226 12-04-2021 20:45:00 4.2 C 83 % 1.58 C
227 12-04-2021 20:50:00 4 C 84 % 1.55 C
228 12-04-2021 20:55:00 3.8 C 84 % 1.35 C
229 12-04-2021 21:00:00 3.6 C 85 % 1.32 C
230 12-04-2021 21:05:00 3.4 C 85 % 1.12 C
231 12-04-2021 21:10:00 3.3 C 85 % 1.03 C
232 12-04-2021 21:15:00 3.2 C 86 % 1.09 C
233 12-04-2021 21:20:00 3.2 C 86 % 1.09 C
234 12-04-2021 21:25:00 3.1 C 86 % 0.99 C
235 12-04-2021 21:30:00 2.9 C 87 % 0.96 C
236 12-04-2021 21:35:00 2.9 C 87 % 0.96 C
237 12-04-2021 21:40:00 2.8 C 87 % 0.86 C
238 12-04-2021 21:45:00 2.7 C 88 % 0.92 C
239 12-04-2021 21:50:00 2.7 C 88 % 0.92 C
240 12-04-2021 21:55:00 2.6 C 88 % 0.82 C
241 12-04-2021 22:00:00 2.4 C 89 % 0.78 C
242 12-04-2021 22:05:00 2.4 C 88 % 0.62 C
243 12-04-2021 22:10:00 2.3 C 89 % 0.68 C
244 12-04-2021 22:15:00 2.2 C 89 % 0.58 C
245 12-04-2021 22:20:00 2.2 C 89 % 0.58 C
246 12-04-2021 22:25:00 2.1 C 89 % 0.48 C
247 12-04-2021 22:30:00 2 C 89 % 0.38 C
248 12-04-2021 22:35:00 1.9 C 90 % 0.44 C
249 12-04-2021 22:40:00 1.8 C 90 % 0.34 C
250 12-04-2021 22:45:00 1.8 C 90 % 0.34 C
Sensor: Nr:Datum:Temp:Feuchte:Taupunkt:
Aussen-T/F 251 12-04-2021 22:50:00 1.8 C 91 % 0.49 C
252 12-04-2021 22:55:00 1.8 C 91 % 0.49 C
253 12-04-2021 23:00:00 1.8 C 91 % 0.49 C
254 12-04-2021 23:05:00 1.8 C 91 % 0.49 C
255 12-04-2021 23:10:00 1.8 C 91 % 0.49 C
256 12-04-2021 23:15:00 1.7 C 91 % 0.39 C
257 12-04-2021 23:20:00 1.6 C 91 % 0.29 C
258 12-04-2021 23:25:00 1.4 C 91 % 0.1 C
259 12-04-2021 23:30:00 1.3 C 91 % 0 C
260 12-04-2021 23:35:00 1.2 C 91 % -0.1 C
261 12-04-2021 23:40:00 1.2 C 91 % -0.1 C
262 12-04-2021 23:45:00 1.1 C 92 % -0.05 C
263 12-04-2021 23:50:00 1.1 C 92 % -0.05 C
264 12-04-2021 23:55:00 1 C 92 % -0.15 C

Legende:
   Min
   Max


Maximal/Minimal-Werte vom 12.04.2021 - 12.04.2021

Sensor Min Max Avg
Temp
(Aussen-T/F)
1 °C
12-04-2021  23:55:00
8.4 °C
12-04-2021  15:05:00
4.19 °C
Feuchte
(Aussen-T/F)
66 %
12-04-2021  19:05:00
96 %
12-04-2021  02:00:00
85.73 %
Taupunkt
(Aussen-T/F)
-0.15 C
12-04-2021  23:55:00
3.92 C
12-04-2021  15:45:00
1.91 C

Die Daten stammen von einer Davis Vantage Pro 2 Wetter-Station und werden unter Linux mit der Software wview2wettercgi und aufbereitet. Alle Angaben erfolgen ohne Gewähr für ihre Vollständigkeit oder Richtigkeit.
Kontakt: Rainer Krienke krienke@uni-koblenz.de . Meine Webseiten an der Uni Koblenz oder privat.
Version: $Revision: 0.78 $